Bagdad, Florida
Current Conditions -  °F | °C
As of 7:56 AM on Saturday 22 Nov 2014 (Local Time) from KNDZ Reporting Station
Few Clouds Few Clouds  
Wind Chill: 53°   Ceiling: Unl
Heat Index: 53°   Visibility: 10mi
Dew Point: 41°   Wind: 9mph
Humidity: 64%   Direction: 60°ENE
Pressure: 30.3"   Gusts: NA
Location:  30.6°N, 87.04°W
Report Text: KNDZ 221356Z 06008KT 10SM FEW050 FEW200 12/05 A3030 RMK AO2 SLP249 T01170050 $
Loading
Personal Weather Stations






























Interactive Weather Map New forecast layout! Learn more

10-Day Weather Forecast

Advertisements
Track Severe Weather on mobile